Orkoien, Spain
Current Conditions -  °F | °C
As of 11:30 PM on Monday 24 Nov 2014 (Local Time) from LEPP Reporting Station
Few Clouds Few Clouds  
Wind Chill: 55°   Ceiling: Unl
Heat Index: 55°   Visibility: 6mi
Dew Point: 55°   Wind: 2mph
Humidity: 100%   Direction: NA
Pressure: 30.09"   Gusts: NA
Location:  42.82°N, 1.7°W
Report Text: LEPP 242230Z VRB02KT 9999 FEW014 13/13 Q1019
Loading
Personal Weather Stations






























Interactive Weather Map New forecast layout! Learn more

10-Day Weather Forecast

Advertisements
Track Severe Weather on mobile